Time;durP1;ratioP1;P1;durP2;ratioP2;P2;SDS_P1;SDS_P2;PMS_P1;PMS_P2;Temp;Humidity;BMP_temperature;BMP_pressure;BME280_temperature;BME280_humidity;BME280_pressure;Samples;Min_cycle;Max_cycle;Signal;HPM_P1;HPM_P2
2022/12/14 00:00:32;;;;;;;144.70;66.97;;;;;;;-7.94;98.61;99239.91;5054357;28;20078;-80
2022/12/14 00:02:57;;;;;;;131.15;63.83;;;;;;;-7.92;99.10;99243.34;5054352;28;20070;-80
2022/12/14 00:05:23;;;;;;;141.05;65.00;;;;;;;-7.99;99.22;99225.47;5074211;28;20464;-80
2022/12/14 00:07:48;;;;;;;126.93;60.92;;;;;;;-8.00;99.08;99211.16;5073874;28;20059;-80
2022/12/14 00:10:13;;;;;;;105.55;52.28;;;;;;;-7.95;98.91;99223.03;5056192;28;20115;-80
2022/12/14 00:12:38;;;;;;;102.07;51.42;;;;;;;-7.99;98.95;99207.78;5056021;28;20027;-80
2022/12/14 00:15:05;;;;;;;106.05;55.03;;;;;;;-7.98;98.78;99207.81;5074134;28;20021;-80
2022/12/14 00:17:30;;;;;;;102.25;49.53;;;;;;;-7.96;98.36;99220.47;5074100;28;20040;-80
2022/12/14 00:19:55;;;;;;;88.25;45.15;;;;;;;-8.07;98.39;99203.41;5055668;28;20455;-80
2022/12/14 00:22:20;;;;;;;106.35;50.65;;;;;;;-8.05;98.44;99209.38;5073890;28;20021;-80
2022/12/14 00:24:46;;;;;;;111.53;53.45;;;;;;;-8.08;98.04;99213.50;5074325;28;20109;-80
2022/12/14 00:27:11;;;;;;;116.57;55.17;;;;;;;-8.12;97.85;99207.53;5056109;28;20341;-80
2022/12/14 00:29:36;;;;;;;106.78;55.72;;;;;;;-8.13;98.60;99210.00;5073924;28;20043;-80
2022/12/14 00:32:02;;;;;;;109.95;55.63;;;;;;;-8.20;98.62;99195.56;5073646;28;20424;-80
2022/12/14 00:34:27;;;;;;;124.95;60.75;;;;;;;-8.17;98.92;99201.53;5072374;28;20027;-80
2022/12/14 00:36:54;;;;;;;126.88;63.67;;;;;;;-8.16;98.99;99207.44;5073865;28;20033;-80
2022/12/14 00:39:19;;;;;;;110.03;58.03;;;;;;;-8.17;98.68;99210.78;5072254;28;20013;-80
2022/12/14 00:41:45;;;;;;;120.07;60.22;;;;;;;-8.22;98.82;99198.03;5073766;28;20074;-80
2022/12/14 00:44:10;;;;;;;130.82;63.65;;;;;;;-8.27;98.78;99193.72;5073592;28;20111;-80
2022/12/14 00:46:35;;;;;;;123.95;65.43;;;;;;;-8.30;98.60;99185.28;5072197;28;20025;-80
2022/12/14 00:49:00;;;;;;;121.68;68.15;;;;;;;-8.28;98.58;99195.41;5073200;28;20524;-80
2022/12/14 00:51:26;;;;;;;115.05;61.50;;;;;;;-8.33;98.68;99180.16;5073221;28;20070;-80
2022/12/14 00:53:51;;;;;;;126.30;61.55;;;;;;;-8.28;98.87;99197.91;5073515;28;20407;-80
2022/12/14 00:56:16;;;;;;;142.38;72.40;;;;;;;-8.32;98.80;99193.63;5073263;28;20104;-80
2022/12/14 00:58:42;;;;;;;134.15;69.20;;;;;;;-8.35;98.67;99185.97;5071602;28;20107;-80
2022/12/14 01:01:13;;;;;;;130.52;68.97;;;;;;;-8.32;98.66;99188.56;5073257;28;20036;-80
2022/12/14 01:03:39;;;;;;;138.93;74.18;;;;;;;-8.36;99.26;99190.19;5072865;28;20036;-80
2022/12/14 01:06:04;;;;;;;141.98;79.13;;;;;;;-8.44;98.94;99184.13;5072796;28;20428;-80
2022/12/14 01:08:34;;;;;;;131.48;70.15;;;;;;;-8.40;98.93;99196.00;5073128;28;20111;-80
2022/12/14 01:11:02;;;;;;;122.65;64.40;;;;;;;-8.44;99.54;99193.38;5072863;28;20032;-80
2022/12/14 01:13:27;;;;;;;139.05;70.72;;;;;;;-8.47;98.99;99189.13;5073285;28;20020;-80
2022/12/14 01:15:53;;;;;;;133.23;67.68;;;;;;;-8.50;99.38;99184.03;5071405;28;20031;-80
2022/12/14 01:18:18;;;;;;;121.85;65.05;;;;;;;-8.42;99.68;99192.63;5072971;28;20086;-80
2022/12/14 01:20:43;;;;;;;128.60;66.05;;;;;;;-8.52;99.42;99179.75;5072474;28;20054;-80
2022/12/14 01:23:08;;;;;;;124.63;66.07;;;;;;;-8.54;99.72;99174.66;5054868;28;20017;-80
2022/12/14 01:25:34;;;;;;;127.03;68.60;;;;;;;-8.56;99.63;99167.03;5072859;28;20024;-80
2022/12/14 01:27:59;;;;;;;118.22;61.08;;;;;;;-8.49;99.85;99185.72;5072555;28;20423;-80
2022/12/14 01:30:24;;;;;;;131.88;64.43;;;;;;;-8.47;99.79;99189.13;5073035;28;20078;-80
2022/12/14 01:32:50;;;;;;;127.30;63.70;;;;;;;-8.48;99.99;99184.03;5072357;28;20043;-80
2022/12/14 01:35:16;;;;;;;121.57;62.42;;;;;;;-8.57;100.00;99177.97;5072414;28;20032;-80
2022/12/14 01:37:41;;;;;;;115.70;61.03;;;;;;;-8.56;100.00;99172.09;5072515;28;20499;-80
2022/12/14 01:40:07;;;;;;;115.65;60.70;;;;;;;-8.52;100.00;99178.06;5072175;28;20066;-80
2022/12/14 01:42:36;;;;;;;114.03;61.70;;;;;;;-8.49;100.00;99185.72;5071971;28;20055;-80
2022/12/14 01:45:01;;;;;;;118.28;61.83;;;;;;;-8.50;99.80;99176.44;5072428;28;20036;-80
2022/12/14 01:47:34;;;;;;;125.63;62.17;;;;;;;-8.53;99.70;99171.31;5072265;28;20077;-80
2022/12/14 01:50:25;;;;;;;120.05;67.60;;;;;;;-8.51;99.94;99174.75;5072261;28;20028;-80
2022/12/14 01:52:55;;;;;;;114.13;62.63;;;;;;;-8.51;99.92;99168.81;5072125;28;20021;-80
2022/12/14 01:55:26;;;;;;;114.00;61.37;;;;;;;-8.60;100.00;99159.38;5070985;28;20020;-80
2022/12/14 01:58:07;;;;;;;108.40;57.90;;;;;;;-8.53;99.93;99167.94;5071808;28;20464;-80
2022/12/14 02:00:32;;;;;;;112.97;58.53;;;;;;;-8.59;99.65;99148.47;5072262;28;20026;-80
2022/12/14 02:03:21;;;;;;;107.72;57.10;;;;;;;-8.56;100.00;99161.16;5071728;28;20107;-80
2022/12/14 02:05:52;;;;;;;97.93;51.83;;;;;;;-8.62;99.99;99143.34;5071926;28;20021;-80
2022/12/14 02:08:22;;;;;;;102.28;53.17;;;;;;;-8.55;100.00;99160.34;5071989;28;20025;-80
2022/12/14 02:10:49;;;;;;;119.75;56.90;;;;;;;-8.59;99.57;99156.91;5071932;28;20329;-80
2022/12/14 02:13:27;;;;;;;102.65;54.97;;;;;;;-8.64;99.84;99142.44;5072419;28;20028;-80
2022/12/14 02:15:52;;;;;;;100.50;51.38;;;;;;;-8.62;100.00;99156.81;5071795;28;20122;-80
2022/12/14 02:18:23;;;;;;;114.43;58.28;;;;;;;-8.63;100.00;99146.72;5071863;28;20020;-80
2022/12/14 02:20:58;;;;;;;;;;;;;;;-8.66;99.99;99154.19;5054074;28;20024;-80
2022/12/14 02:23:57;;;;;;;105.55;55.15;;;;;;;-8.69;99.70;99144.03;5071871;28;20374;-80
2022/12/14 02:26:47;;;;;;;105.95;55.15;;;;;;;-8.80;99.86;99129.50;5071930;28;20035;-80
2022/12/14 02:29:31;;;;;;;143.98;72.22;;;;;;;-8.74;99.68;99140.56;5072076;28;20052;-80
2022/12/14 02:32:09;;;;;;;127.80;65.03;;;;;;;-8.79;100.00;99135.41;5071706;28;20059;-80
2022/12/14 02:34:52;;;;;;;120.70;61.00;;;;;;;-8.80;99.91;99139.59;5071912;28;20020;-80
2022/12/14 02:37:27;;;;;;;104.68;53.88;;;;;;;-8.80;100.00;99136.25;5071874;28;20028;-80
2022/12/14 02:40:03;;;;;;;92.32;48.85;;;;;;;-8.82;100.00;99135.34;5071281;28;20017;-80
2022/12/14 02:43:10;;;;;;;93.10;50.13;;;;;;;-8.82;100.00;99127.75;5072182;28;20046;-80
2022/12/14 02:45:42;;;;;;;93.30;48.90;;;;;;;-8.83;100.00;99128.59;4970550;28;20039;-80
2022/12/14 02:48:22;;;;;;;83.85;44.45;;;;;;;-8.92;100.00;99109.06;4970357;28;20475;-80
2022/12/14 02:50:59;;;;;;;82.55;41.88;;;;;;;-8.92;100.00;99105.69;4970446;28;20038;-80
2022/12/14 02:53:28;;;;;;;85.53;46.03;;;;;;;-8.80;99.72;99121.09;4970596;28;20065;-80
2022/12/14 02:55:59;;;;;;;79.80;44.97;;;;;;;-8.83;99.89;99113.44;4972876;28;20202;-80
2022/12/14 02:58:33;;;;;;;82.10;44.15;;;;;;;-8.84;100.00;99125.22;4974287;28;20031;-80
2022/12/14 03:00:59;;;;;;;81.88;45.72;;;;;;;-8.90;99.72;99114.13;4974073;28;20019;-80
2022/12/14 03:03:24;;;;;;;82.65;46.55;;;;;;;-8.84;100.00;99127.75;4974083;28;20046;-80
2022/12/14 03:06:01;;;;;;;82.10;42.67;;;;;;;-8.86;100.00;99123.47;4974064;28;20126;-80
2022/12/14 03:08:33;;;;;;;81.32;41.40;;;;;;;-8.85;99.37;99128.56;4974370;28;20109;-80
2022/12/14 03:11:05;;;;;;;78.40;40.28;;;;;;;-8.86;99.77;99115.91;4973964;28;20110;-80
2022/12/14 03:13:52;;;;;;;75.25;40.33;;;;;;;-8.81;100.00;99121.88;4974197;28;20497;-80
2022/12/14 03:16:26;;;;;;;73.05;38.75;;;;;;;-8.87;100.00;99117.56;4974359;28;20236;-80
2022/12/14 03:19:01;;;;;;;71.05;36.75;;;;;;;-8.84;100.00;99129.41;4973614;28;20038;-80
2022/12/14 03:21:32;;;;;;;76.80;38.05;;;;;;;-8.88;99.86;99115.03;4985848;28;20490;-80
2022/12/14 03:24:03;;;;;;;70.82;36.45;;;;;;;-8.90;100.00;99109.06;5055028;28;20048;-80
2022/12/14 03:26:42;;;;;;;72.68;37.60;;;;;;;-8.85;100.00;99121.00;5055137;28;20021;-80
2022/12/14 03:29:11;;;;;;;69.65;37.50;;;;;;;-8.81;100.00;99124.41;5053609;28;20024;-80
2022/12/14 03:31:44;;;;;;;74.97;41.92;;;;;;;-8.87;100.00;99110.00;5054919;28;20021;-80
2022/12/14 03:34:12;;;;;;;82.28;40.40;;;;;;;-8.91;100.00;99097.28;5053230;28;20527;-80
2022/12/14 03:36:45;;;;;;;84.63;44.17;;;;;;;-8.83;100.00;99110.94;5054916;28;20066;-80
2022/12/14 03:39:17;;;;;;;83.03;42.90;;;;;;;-8.83;100.00;99111.78;5054576;28;20028;-80
2022/12/14 03:41:57;;;;;;;84.57;45.22;;;;;;;-8.83;100.00;99113.44;5054688;28;20017;-80
2022/12/14 03:44:29;;;;;;;120.78;56.03;;;;;;;-8.83;100.00;99103.34;5054714;28;20077;-80
2022/12/14 03:46:56;;;;;;;104.82;52.83;;;;;;;-8.83;100.00;99111.78;5054800;28;20025;-80
2022/12/14 03:49:49;;;;;;;109.22;55.10;;;;;;;-8.84;100.00;99104.19;5054502;28;20037;-80
2022/12/14 03:52:23;;;;;;;104.07;54.40;;;;;;;-8.85;100.00;99110.03;5054285;28;20021;-79
2022/12/14 03:55:06;;;;;;;104.82;53.05;;;;;;;-8.85;100.00;99115.06;5054305;28;20055;-80
2022/12/14 03:57:43;;;;;;;111.63;58.78;;;;;;;-8.90;100.00;99106.56;5054463;28;20021;-80
2022/12/14 04:00:12;;;;;;;99.05;52.95;;;;;;;-8.88;100.00;99102.41;5054032;28;20464;-80
2022/12/14 04:02:47;;;;;;;103.68;56.05;;;;;;;-8.89;100.00;99104.09;5054428;28;20472;-80
2022/12/14 04:05:36;;;;;;;95.38;51.40;;;;;;;-8.95;100.00;99085.41;5052252;28;20083;-80
2022/12/14 04:08:11;;;;;;;103.55;53.13;;;;;;;-8.92;100.00;99098.97;5054201;28;20101;-80
2022/12/14 04:19:23;;;;;;;94.55;50.20;;;;;;;-8.93;100.00;99086.28;5053904;28;20063;-79
2022/12/14 04:21:55;;;;;;;102.20;51.60;;;;;;;-9.01;100.00;99067.63;5053920;28;20082;-79
2022/12/14 04:27:17;;;;;;;98.53;52.60;;;;;;;-8.94;100.00;99066.94;5053769;28;20040;-80
2022/12/14 04:29:55;;;;;;;98.05;52.47;;;;;;;-8.92;100.00;99067.84;5053830;28;20024;-80
2022/12/14 04:32:27;;;;;;;90.13;49.33;;;;;;;-8.98;100.00;99060.13;5053665;28;20021;-79
2022/12/14 04:35:09;;;;;;;95.32;48.67;;;;;;;-8.98;100.00;99052.53;5035584;28;20029;-80
2022/12/14 04:37:37;;;;;;;98.82;51.70;;;;;;;-9.05;100.00;99049.91;5053817;28;20083;-80
2022/12/14 04:40:07;;;;;;;130.15;64.45;;;;;;;-8.97;100.00;99061.81;5053301;28;20025;-80
2022/12/14 04:42:43;;;;;;;110.45;56.03;;;;;;;-9.01;100.00;99045.78;5052150;28;20028;-79
2022/12/14 04:45:15;;;;;;;122.68;60.17;;;;;;;-8.95;100.00;99050.09;5053497;28;20457;-79
2022/12/14 04:47:50;;;;;;;130.75;64.28;;;;;;;-8.97;100.00;99059.28;5053553;28;20025;-79
2022/12/14 04:50:27;;;;;;;122.70;60.03;;;;;;;-8.97;100.00;99061.81;5053439;28;20116;-80
2022/12/14 04:53:17;;;;;;;118.57;60.15;;;;;;;-9.02;100.00;99050.78;5052118;28;20025;-79
2022/12/14 04:55:48;;;;;;;122.90;62.05;;;;;;;-8.99;100.00;99061.78;5053500;28;20017;-79
2022/12/14 04:58:27;;;;;;;127.32;63.80;;;;;;;-9.02;100.00;99053.28;5053122;28;20025;-79
2022/12/14 05:00:59;;;;;;;112.50;61.63;;;;;;;-9.04;100.00;99048.22;5053343;28;20111;-79
2022/12/14 05:03:36;;;;;;;127.13;68.38;;;;;;;-9.07;100.00;99043.94;5057174;28;20106;-80
2022/12/14 05:06:05;;;;;;;133.57;68.25;;;;;;;-9.05;100.00;99049.91;5073157;28;20426;-79
2022/12/14 05:08:48;;;;;;;145.30;79.32;;;;;;;-9.05;100.00;99049.06;5073164;28;20024;-79
2022/12/14 05:11:25;;;;;;;145.90;79.97;;;;;;;-9.08;100.00;99044.78;5073235;28;20016;-79
2022/12/14 05:13:50;;;;;;;144.45;73.95;;;;;;;-9.13;100.00;99043.84;5072870;28;20028;-80
2022/12/14 05:16:18;;;;;;;146.07;77.13;;;;;;;-9.11;100.00;99038.81;5072563;28;20021;-79
2022/12/14 05:18:44;;;;;;;165.38;88.30;;;;;;;-9.15;100.00;99040.41;5072282;28;20020;-79
2022/12/14 05:21:45;;;;;;;178.27;94.00;;;;;;;-9.16;100.00;99043.75;5054670;28;20049;-79
2022/12/14 05:23:58;;;;;;;307.95;151.00;;;;;;;-9.22;100.00;99037.75;5072679;28;20032;-80
2022/12/14 05:26:24;;;;;;;213.75;107.60;;;;;;;-9.20;100.00;99041.13;5071230;28;20420;-79
2022/12/14 05:28:49;;;;;;;142.55;69.60;;;;;;;-9.33;100.00;99024.88;5072878;28;20103;-79
2022/12/14 05:31:15;;;;;;;143.50;72.40;;;;;;;-9.34;100.00;99026.56;5072580;28;20111;-79
2022/12/14 05:33:40;;;;;;;266.08;128.90;;;;;;;-9.34;100.00;99036.66;5071407;28;20039;-79
2022/12/14 05:36:06;;;;;;;144.40;77.55;;;;;;;-9.34;100.00;99036.66;5072239;28;20023;-79
2022/12/14 05:38:31;;;;;;;164.52;83.28;;;;;;;-9.43;100.00;99015.41;5072457;28;20024;-79
2022/12/14 05:40:56;;;;;;;154.52;80.78;;;;;;;-9.44;100.00;99017.06;5072419;28;20460;-79
2022/12/14 05:43:22;;;;;;;186.65;91.97;;;;;;;-9.39;100.00;99022.25;5072986;28;20024;-79
2022/12/14 05:45:47;;;;;;;149.70;73.05;;;;;;;-9.43;100.00;99016.28;5072283;28;20019;-79
2022/12/14 05:48:12;;;;;;;167.60;101.63;;;;;;;-9.52;100.00;99003.47;5072211;28;20028;-79
2022/12/14 05:50:38;;;;;;;227.75;137.55;;;;;;;-9.50;100.00;99004.34;5072608;28;20107;-79
2022/12/14 05:53:03;;;;;;;144.35;81.40;;;;;;;-9.58;100.00;98998.25;5072073;28;20414;-80
2022/12/14 05:55:29;;;;;;;181.32;109.85;;;;;;;-9.62;100.00;98994.81;5054129;28;20017;-80
2022/12/14 05:57:55;;;;;;;137.18;75.35;;;;;;;-9.60;100.00;99002.44;5072248;28;20028;-79
2022/12/14 06:00:20;;;;;;;132.20;69.68;;;;;;;-9.58;100.00;98995.75;5072016;28;20024;-80
2022/12/14 06:02:46;;;;;;;129.57;65.32;;;;;;;-9.61;100.00;99000.69;5072296;28;20544;-79
2022/12/14 06:05:11;;;;;;;125.03;68.43;;;;;;;-9.64;100.00;98998.97;5071489;28;20491;-80
2022/12/14 06:07:36;;;;;;;133.63;70.47;;;;;;;-9.59;100.00;99007.50;5072087;28;20099;-80
2022/12/14 06:10:02;;;;;;;125.07;63.83;;;;;;;-9.63;100.00;99007.41;5053800;28;20034;-79
2022/12/14 06:12:27;;;;;;;139.63;69.60;;;;;;;-9.69;100.00;98997.16;5071823;28;20020;-80
2022/12/14 06:14:53;;;;;;;126.55;68.45;;;;;;;-9.72;100.00;98989.53;5072227;28;20020;-80
2022/12/14 06:17:18;;;;;;;133.77;67.53;;;;;;;-9.74;100.00;98998.72;5071832;28;20058;-80
2022/12/14 06:19:43;;;;;;;136.93;73.88;;;;;;;-9.67;100.00;99015.69;5071983;28;20058;-80
2022/12/14 06:22:08;;;;;;;128.63;67.80;;;;;;;-9.73;100.00;98993.72;5071705;28;20531;-80
2022/12/14 06:24:34;;;;;;;128.23;65.95;;;;;;;-9.78;100.00;98994.41;5071887;28;20062;-80
2022/12/14 06:26:59;;;;;;;127.68;69.25;;;;;;;-9.70;100.00;98998.81;5071674;28;20447;-80
2022/12/14 06:29:25;;;;;;;129.15;68.45;;;;;;;-9.75;100.00;98987.78;5071961;28;20038;-80
2022/12/14 06:31:50;;;;;;;140.18;72.43;;;;;;;-9.69;100.00;99008.13;5072072;28;20023;-80
2022/12/14 06:34:16;;;;;;;140.52;70.82;;;;;;;-9.69;100.00;98995.50;5053727;28;20042;-80
2022/12/14 06:36:42;;;;;;;135.73;69.90;;;;;;;-9.71;100.00;98984.53;5071831;28;20070;-80
2022/12/14 06:39:10;;;;;;;127.88;69.40;;;;;;;-9.77;100.00;98975.97;5071456;28;20020;-80
2022/12/14 06:41:36;;;;;;;140.20;71.43;;;;;;;-9.64;100.00;98986.38;5071813;28;20059;-80
2022/12/14 06:44:07;;;;;;;132.05;67.07;;;;;;;-9.67;100.00;98987.97;5053574;28;20033;-80
2022/12/14 06:46:33;;;;;;;135.02;70.57;;;;;;;-9.70;100.00;98975.28;5071534;28;20387;-80
2022/12/14 06:48:59;;;;;;;132.10;66.40;;;;;;;-9.64;100.00;98983.88;5071617;28;20028;-80
2022/12/14 06:51:24;;;;;;;126.50;65.38;;;;;;;-9.61;100.00;98983.91;5071418;28;20025;-80
2022/12/14 06:53:54;;;;;;;118.50;61.30;;;;;;;-9.63;100.00;98975.47;5071546;28;20052;-80
2022/12/14 06:56:21;;;;;;;123.93;67.95;;;;;;;-9.56;100.00;98979.84;5071320;28;20476;-80
2022/12/14 06:58:47;;;;;;;128.43;67.65;;;;;;;-9.57;100.00;98965.53;5071640;28;20020;-80
2022/12/14 07:01:16;;;;;;;123.43;62.65;;;;;;;-9.54;100.00;98969.78;5071408;28;20035;-79
2022/12/14 07:03:45;;;;;;;121.43;65.70;;;;;;;-9.45;100.00;98981.75;5071296;28;20040;-80
2022/12/14 07:06:11;;;;;;;130.73;62.88;;;;;;;-9.42;100.00;98986.88;5069979;28;20154;-80
2022/12/14 07:08:37;;;;;;;137.80;71.05;;;;;;;-9.36;100.00;98987.81;5071306;28;20021;-80
2022/12/14 07:11:06;;;;;;;134.25;69.45;;;;;;;-9.30;100.00;98977.06;5069779;28;20138;-80
2022/12/14 07:13:31;;;;;;;124.20;65.65;;;;;;;-9.27;100.00;98982.13;5071533;28;20028;-79
2022/12/14 07:15:58;;;;;;;129.68;62.33;;;;;;;-9.28;100.00;98982.97;5071435;28;20093;-79
2022/12/14 07:18:24;;;;;;;128.35;65.95;;;;;;;-9.47;99.21;98946.44;5071394;28;20020;-79
2022/12/14 07:21:03;;;;;;;120.13;62.63;;;;;;;-9.30;99.60;98972.84;5071379;28;20055;-79
2022/12/14 07:23:30;;;;;;;129.00;67.47;;;;;;;-9.32;100.00;98956.81;5071586;28;20364;-79
2022/12/14 07:26:13;;;;;;;131.68;69.53;;;;;;;-9.30;100.00;98965.28;5071389;28;20049;-78
2022/12/14 07:28:39;;;;;;;157.50;79.88;;;;;;;-9.21;100.00;98963.78;5071365;28;20086;-79
2022/12/14 07:31:09;;;;;;;137.82;70.28;;;;;;;-9.19;100.00;98962.97;5070974;28;20514;-79
2022/12/14 07:33:34;;;;;;;147.17;74.13;;;;;;;-9.14;100.00;98956.38;5071212;28;20085;-79
2022/12/14 07:36:08;;;;;;;137.52;71.88;;;;;;;-9.10;100.00;98968.22;5071171;28;20262;-79
2022/12/14 07:38:35;;;;;;;138.02;72.05;;;;;;;-9.05;100.00;98966.66;5071064;28;20430;-79
2022/12/14 07:41:07;;;;;;;129.93;68.03;;;;;;;-9.12;100.00;98954.72;5054180;28;20020;-79
2022/12/14 07:43:32;;;;;;;129.30;67.15;;;;;;;-9.10;100.00;98954.75;5074633;28;20021;-79
2022/12/14 07:46:00;;;;;;;132.20;71.93;;;;;;;-9.07;100.00;98954.81;5074606;28;20029;-79
2022/12/14 07:48:26;;;;;;;130.90;68.45;;;;;;;-8.98;100.00;98964.25;5074734;28;20078;-79
2022/12/14 07:50:51;;;;;;;139.98;70.68;;;;;;;-8.97;100.00;98956.72;5073570;28;20456;-79
2022/12/14 07:53:16;;;;;;;143.73;77.10;;;;;;;-9.02;100.00;98937.25;5056491;28;20266;-79
2022/12/14 07:55:42;;;;;;;134.98;71.88;;;;;;;-8.98;100.00;98936.47;5074598;28;20429;-79
2022/12/14 07:58:07;;;;;;;144.30;70.45;;;;;;;-8.91;100.00;98953.47;5074254;28;20074;-78
2022/12/14 08:00:32;;;;;;;141.35;69.30;;;;;;;-8.91;100.00;98950.94;5074389;28;20024;-79
2022/12/14 08:02:57;;;;;;;140.43;72.28;;;;;;;-8.94;100.00;98939.09;5074466;28;20041;-79
2022/12/14 08:05:23;;;;;;;137.90;69.38;;;;;;;-8.88;100.00;98940.91;5074248;28;20098;-79
2022/12/14 08:07:48;;;;;;;127.85;67.28;;;;;;;-8.97;100.00;98925.56;5074357;28;20388;-79
2022/12/14 08:10:13;;;;;;;123.13;69.10;;;;;;;-8.85;100.00;98940.94;5074038;28;20021;-79
2022/12/14 08:12:39;;;;;;;148.30;76.63;;;;;;;-8.77;100.00;98931.00;5074090;28;20119;-79
2022/12/14 08:15:04;;;;;;;129.50;64.68;;;;;;;-8.61;100.00;98931.31;5074109;28;20028;-79
2022/12/14 08:17:31;;;;;;;117.57;63.47;;;;;;;-8.45;100.00;98927.38;5074483;28;20025;-79
2022/12/14 08:19:56;;;;;;;123.20;66.53;;;;;;;-8.21;100.00;98936.19;5074140;28;20021;-79
2022/12/14 08:22:21;;;;;;;126.70;69.90;;;;;;;-8.14;99.28;98915.22;5073865;28;20353;-79
2022/12/14 08:24:47;;;;;;;123.18;64.38;;;;;;;-7.93;99.69;98925.69;5073988;28;20024;-79
2022/12/14 08:27:12;;;;;;;134.43;70.05;;;;;;;-7.78;98.81;98917.50;5073718;28;20135;-79
2022/12/14 08:29:37;;;;;;;124.53;68.80;;;;;;;-7.67;98.42;98915.94;5074045;28;20173;-79
2022/12/14 08:32:03;;;;;;;130.65;68.65;;;;;;;-7.55;98.18;98922.84;5072451;28;20024;-78
2022/12/14 08:34:28;;;;;;;128.57;65.95;;;;;;;-7.42;97.05;98936.53;5072364;28;20018;-79
2022/12/14 08:36:53;;;;;;;132.18;71.63;;;;;;;-7.36;97.40;98926.50;5074126;28;20031;-79
2022/12/14 08:39:19;;;;;;;132.70;70.40;;;;;;;-7.39;96.43;98908.75;5073383;28;20016;-79
2022/12/14 08:41:45;;;;;;;134.50;72.50;;;;;;;-7.35;96.45;98929.03;5073636;28;20058;-79
2022/12/14 08:44:11;;;;;;;131.30;69.15;;;;;;;-7.53;96.32;98911.94;5073352;28;20020;-79
2022/12/14 08:46:38;;;;;;;126.65;69.55;;;;;;;-7.53;96.58;98919.53;5074005;28;20517;-79
2022/12/14 08:49:03;;;;;;;127.60;69.63;;;;;;;-7.55;96.39;98915.28;5072399;28;20349;-79
2022/12/14 08:51:29;;;;;;;135.80;74.05;;;;;;;-7.66;96.86;98902.50;5072999;28;20035;-79
2022/12/14 08:53:54;;;;;;;136.45;71.03;;;;;;;-7.71;96.97;98901.59;5072550;28;20099;-79
2022/12/14 08:56:24;;;;;;;139.88;74.45;;;;;;;-7.66;96.80;98929.47;5073152;28;20052;-79
2022/12/14 08:58:49;;;;;;;139.00;77.03;;;;;;;-7.78;97.37;98912.44;5073500;28;20020;-79
2022/12/14 09:01:24;;;;;;;146.50;75.97;;;;;;;-7.81;98.02;98913.22;5073073;28;20028;-78
2022/12/14 09:03:49;;;;;;;134.57;72.57;;;;;;;-7.75;98.05;98915.00;5073166;28;20472;-79
2022/12/14 09:06:22;;;;;;;141.45;76.57;;;;;;;-7.81;98.51;98910.69;5073044;28;20062;-79
2022/12/14 09:08:47;;;;;;;143.23;75.22;;;;;;;-7.83;98.52;98912.38;5072983;28;20024;-79
2022/12/14 09:11:14;;;;;;;144.65;78.57;;;;;;;-7.93;98.40;98902.09;5072759;28;20016;-79
2022/12/14 09:13:40;;;;;;;144.20;75.93;;;;;;;-7.98;98.66;98898.66;5072778;28;20028;-79
2022/12/14 09:16:09;;;;;;;145.85;76.60;;;;;;;-8.04;98.47;98891.84;5073281;28;20459;-79
2022/12/14 09:18:34;;;;;;;150.18;78.75;;;;;;;-8.11;98.70;98888.34;5072850;28;20024;-79
2022/12/14 09:21:00;;;;;;;151.70;79.40;;;;;;;-8.11;98.66;98895.94;5071637;28;20020;-79
2022/12/14 09:23:28;;;;;;;150.25;78.95;;;;;;;-8.06;98.79;98896.84;5072839;28;20025;-79
2022/12/14 09:26:01;;;;;;;151.15;78.68;;;;;;;-8.02;99.25;98892.69;5072640;28;20483;-79
2022/12/14 09:28:27;;;;;;;143.20;75.85;;;;;;;-7.98;99.42;98896.97;5072758;28;20117;-79
2022/12/14 09:31:00;;;;;;;158.23;82.45;;;;;;;-7.99;99.11;98877.59;5072992;28;20522;-79
2022/12/14 09:33:27;;;;;;;153.63;80.13;;;;;;;-7.96;99.60;98867.53;5072414;28;20028;-79
2022/12/14 09:35:52;;;;;;;155.35;78.45;;;;;;;-7.85;99.88;98860.94;5072593;28;20021;-79
2022/12/14 09:38:19;;;;;;;148.75;77.85;;;;;;;-7.71;99.75;98858.63;5072481;28;20456;-79
2022/12/14 09:40:54;;;;;;;152.73;77.10;;;;;;;-7.63;99.55;98851.09;5070982;28;20025;-79
2022/12/14 09:43:42;;;;;;;154.98;83.05;;;;;;;-7.61;98.85;98850.31;5072302;28;20028;-79
2022/12/14 09:46:22;;;;;;;148.30;78.10;;;;;;;-7.53;99.24;98851.25;5072432;28;20143;-78
2022/12/14 09:48:48;;;;;;;143.70;75.45;;;;;;;-7.44;99.25;98850.53;5072233;28;20024;-79
2022/12/14 09:51:20;;;;;;;141.60;81.30;;;;;;;-7.29;99.47;98854.91;5072266;28;20013;-79
2022/12/14 09:53:49;;;;;;;146.25;78.05;;;;;;;-7.21;98.58;98842.34;5072248;28;20067;-79
2022/12/14 09:56:18;;;;;;;156.30;82.22;;;;;;;-7.15;98.73;98834.84;5072189;28;20021;-79
2022/12/14 09:58:58;;;;;;;153.65;76.68;;;;;;;-7.18;97.65;98825.53;5072023;28;20021;-79
2022/12/14 10:01:46;;;;;;;150.90;78.47;;;;;;;-7.10;97.61;98834.03;5071866;28;20024;-79
2022/12/14 10:04:32;;;;;;;144.05;75.22;;;;;;;-7.10;97.88;98834.03;5070496;28;20052;-79
2022/12/14 10:07:29;;;;;;;150.90;81.03;;;;;;;-7.02;97.84;98818.94;5070925;28;20024;-78
2022/12/14 10:10:18;;;;;;;150.65;80.95;;;;;;;-7.07;97.54;98821.44;5070726;28;20025;-79
2022/12/14 10:13:02;;;;;;;152.18;76.70;;;;;;;-7.03;98.26;98823.16;5072120;28;20028;-79
2022/12/14 10:15:38;;;;;;;155.07;79.30;;;;;;;-7.05;98.70;98804.56;5071784;28;20048;-79
2022/12/14 10:18:26;;;;;;;158.90;86.13;;;;;;;-6.94;99.22;98792.03;5072036;28;20472;-79
2022/12/14 10:21:03;;;;;;;151.57;81.07;;;;;;;-6.91;98.84;98794.59;5072131;28;20023;-79
2022/12/14 10:23:29;;;;;;;167.93;83.93;;;;;;;-6.92;98.98;98786.97;5071776;28;20024;-79
2022/12/14 10:26:01;;;;;;;144.98;79.80;;;;;;;-6.94;99.17;98779.38;5071970;28;20036;-79
2022/12/14 10:28:36;;;;;;;150.40;82.40;;;;;;;-6.83;98.59;98789.56;5071538;28;20464;-79
2022/12/14 10:31:05;;;;;;;146.98;80.20;;;;;;;-6.85;98.69;98779.44;5072002;28;20070;-79
2022/12/14 10:33:31;;;;;;;140.60;79.72;;;;;;;-6.82;98.48;98774.41;5072129;28;20422;-79
2022/12/14 10:36:07;;;;;;;156.93;86.45;;;;;;;-6.73;98.87;98771.13;5070606;28;20020;-79
2022/12/14 10:38:58;;;;;;;150.50;81.45;;;;;;;-6.57;98.74;98769.56;5071502;28;20031;-79
2022/12/14 10:41:48;;;;;;;155.45;81.75;;;;;;;-6.44;98.07;98765.44;5071647;28;20587;-78
2022/12/14 10:44:18;;;;;;;155.30;83.70;;;;;;;-6.33;98.33;98759.56;5071736;28;20017;-79
2022/12/14 10:47:02;;;;;;;168.07;86.07;;;;;;;-6.24;98.05;98761.31;5071680;28;20044;-79
2022/12/14 10:49:50;;;;;;;146.38;80.90;;;;;;;-6.17;97.97;98752.91;5071330;28;20577;-79
2022/12/14 10:52:18;;;;;;;155.32;85.00;;;;;;;-6.18;96.93;98747.84;5071377;28;20100;-79
2022/12/14 10:54:49;;;;;;;154.35;82.78;;;;;;;-6.11;97.19;98741.97;5071712;28;20024;-79
2022/12/14 10:57:25;;;;;;;152.18;83.05;;;;;;;-5.90;97.46;98744.59;5071350;28;20052;-79
2022/12/14 10:59:50;;;;;;;157.45;84.82;;;;;;;-5.84;97.96;98728.56;5071409;28;20024;-79
2022/12/14 11:02:21;;;;;;;148.88;79.75;;;;;;;-5.72;97.36;98726.06;5071599;28;20043;-79
2022/12/14 11:04:52;;;;;;;173.45;86.82;;;;;;;-5.70;96.25;98726.06;5071549;28;20047;-79
2022/12/14 11:07:22;;;;;;;152.43;80.97;;;;;;;-5.72;95.98;98710.00;5071304;28;20020;-79
2022/12/14 11:09:47;;;;;;;152.30;78.50;;;;;;;-5.60;96.12;98712.59;5071437;28;20127;-79
2022/12/14 11:12:12;;;;;;;161.75;84.55;;;;;;;-5.44;96.77;98709.22;5071231;28;20103;-79
2022/12/14 11:14:48;;;;;;;147.55;79.85;;;;;;;-5.44;96.09;98698.22;5053505;28;20020;-79
2022/12/14 11:17:40;;;;;;;152.60;83.00;;;;;;;-5.39;95.32;98694.03;5074588;28;20070;-79
2022/12/14 11:20:16;;;;;;;149.90;79.75;;;;;;;-5.37;95.60;98682.19;5074991;28;20467;-79
2022/12/14 11:22:51;;;;;;;155.02;83.63;;;;;;;-5.30;95.80;98694.88;5075003;28;20027;-79
2022/12/14 11:25:43;;;;;;;156.23;84.55;;;;;;;-5.20;96.12;98689.81;5075037;28;20028;-79
2022/12/14 11:28:31;;;;;;;144.80;78.80;;;;;;;-5.09;95.62;98688.13;5075261;28;20495;-79
2022/12/14 11:31:02;;;;;;;146.45;80.80;;;;;;;-5.06;95.67;98673.72;5074759;28;20082;-79
2022/12/14 11:33:50;;;;;;;159.30;84.28;;;;;;;-4.98;95.76;98668.66;5074765;28;20020;-79